createdAt,value
2023-03-20T00:04:27.309Z,22.77
2023-03-20T00:09:25.086Z,20.40
2023-03-20T00:14:24.199Z,18.27
2023-03-20T00:19:23.210Z,25.42
2023-03-20T00:24:23.849Z,23.65
2023-03-20T00:29:24.120Z,20.17
2023-03-20T00:34:28.411Z,20.67
2023-03-20T00:39:25.655Z,16.83
2023-03-20T00:44:25.730Z,16.05
2023-03-20T00:49:27.375Z,15.63
2023-03-20T00:54:25.622Z,19.90
2023-03-20T00:59:26.864Z,18.52
2023-03-20T01:04:24.225Z,17.30
2023-03-20T01:09:21.123Z,21.10
2023-03-20T01:14:18.103Z,22.70
2023-03-20T01:19:15.918Z,20.23
2023-03-20T01:24:12.890Z,22.63
2023-03-20T01:29:18.455Z,22.38
2023-03-20T01:39:13.344Z,23.33
2023-03-20T01:44:19.375Z,24.98
2023-03-20T01:49:54.306Z,26.95
2023-03-20T01:54:52.222Z,29.30
2023-03-20T01:59:53.631Z,27.50
2023-03-20T02:04:56.295Z,29.77
2023-03-20T02:09:54.147Z,26.45
2023-03-20T02:15:01.055Z,28.27
2023-03-20T02:20:31.321Z,27.17
2023-03-20T02:26:06.112Z,27.02
2023-03-20T02:31:53.750Z,26.67
2023-03-20T02:37:26.963Z,27.48
2023-03-20T02:42:33.783Z,28.05
2023-03-20T02:47:41.698Z,28.42
2023-03-20T02:52:57.256Z,29.08
2023-03-20T02:57:59.525Z,23.65
2023-03-20T03:03:02.553Z,22.83
2023-03-20T03:08:02.857Z,26.23
2023-03-20T03:13:07.237Z,25.15
2023-03-20T03:18:08.605Z,27.67
2023-03-20T03:23:07.933Z,23.58
2023-03-20T03:28:11.723Z,40.38
2023-03-20T03:33:16.591Z,34.58
2023-03-20T03:38:26.989Z,26.73
2023-03-20T03:43:31.284Z,31.40
2023-03-20T03:48:32.504Z,32.30
2023-03-20T03:53:33.712Z,26.17
2023-03-20T03:58:36.092Z,31.70
2023-03-20T04:03:37.952Z,33.20
2023-03-20T04:08:39.802Z,27.55
2023-03-20T04:13:36.758Z,27.15
2023-03-20T04:18:36.979Z,26.63
2023-03-20T04:23:34.161Z,38.83
2023-03-20T04:28:32.353Z,39.15
2023-03-20T04:33:49.784Z,43.15
2023-03-20T04:39:17.812Z,32.22
2023-03-20T04:44:16.002Z,37.05
2023-03-20T04:49:15.835Z,46.28
2023-03-20T04:54:12.926Z,45.63
2023-03-20T04:59:10.362Z,36.33
2023-03-20T05:04:08.307Z,36.90
2023-03-20T05:09:05.761Z,31.15
2023-03-20T05:14:07.339Z,27.38
2023-03-20T05:19:23.731Z,38.58
2023-03-20T05:24:42.377Z,27.35
2023-03-20T05:30:15.322Z,27.02
2023-03-20T05:40:41.199Z,27.08
2023-03-20T05:45:57.072Z,33.63
2023-03-20T05:51:15.103Z,29.65
2023-03-20T05:56:32.169Z,25.98
2023-03-20T06:01:49.412Z,33.33
2023-03-20T06:07:07.114Z,31.20
2023-03-20T06:12:05.427Z,45.10
2023-03-20T06:17:02.613Z,32.00
2023-03-20T06:22:00.615Z,33.45
2023-03-20T06:27:00.686Z,40.53
2023-03-20T06:31:58.538Z,38.42
2023-03-20T06:37:00.460Z,35.30
2023-03-20T06:41:59.545Z,31.58
2023-03-20T06:46:56.720Z,32.28
2023-03-20T06:51:53.762Z,30.02
2023-03-20T06:57:00.412Z,25.63
2023-03-20T07:02:03.443Z,32.72
2023-03-20T07:07:01.480Z,32.42
2023-03-20T07:11:59.522Z,28.85
2023-03-20T07:17:07.059Z,27.05
2023-03-20T07:22:07.706Z,21.67
2023-03-20T07:27:15.910Z,20.98
2023-03-20T07:32:14.034Z,15.18
2023-03-20T07:42:26.485Z,15.68
2023-03-20T07:47:38.141Z,15.95
2023-03-20T07:52:35.372Z,17.33
2023-03-20T07:57:32.986Z,18.88
2023-03-20T08:02:30.342Z,13.95
2023-03-20T08:07:29.161Z,16.23
2023-03-20T08:12:25.990Z,17.60
2023-03-20T08:17:23.161Z,26.10
2023-03-20T08:22:21.107Z,15.55
2023-03-20T08:27:19.168Z,15.57
2023-03-20T08:32:16.122Z,18.15
2023-03-20T08:37:15.387Z,13.85
2023-03-20T08:42:12.290Z,26.65
2023-03-20T08:47:11.454Z,14.85
2023-03-20T08:52:08.486Z,19.92
2023-03-20T08:57:05.501Z,13.30
2023-03-20T09:02:02.411Z,13.25
2023-03-20T09:07:03.169Z,14.63
2023-03-20T09:12:00.392Z,12.77
2023-03-20T09:16:57.397Z,13.48
2023-03-20T09:21:54.166Z,13.73
2023-03-20T09:26:55.080Z,16.90
2023-03-20T09:31:53.986Z,16.27
2023-03-20T09:36:51.060Z,16.05
2023-03-20T09:41:57.018Z,12.23
2023-03-20T09:47:19.336Z,13.25
2023-03-20T09:52:23.926Z,13.40
2023-03-20T09:57:25.628Z,11.63
2023-03-20T10:02:34.933Z,16.05
2023-03-20T10:07:32.073Z,13.45
2023-03-20T10:12:47.176Z,18.85
2023-03-20T10:17:54.495Z,11.30
2023-03-20T10:22:55.749Z,13.25
2023-03-20T10:28:00.706Z,15.98
2023-03-20T10:33:12.388Z,19.40
2023-03-20T10:38:24.417Z,14.60
2023-03-20T10:43:23.435Z,10.02
2023-03-20T10:48:26.436Z,11.35
2023-03-20T10:53:34.767Z,9.20
2023-03-20T10:58:37.798Z,11.05
2023-03-20T11:03:38.992Z,11.55
2023-03-20T11:08:38.799Z,14.40
2023-03-20T11:13:40.962Z,13.30
2023-03-20T11:18:41.772Z,11.45
2023-03-20T11:23:38.841Z,8.07
2023-03-20T11:28:40.010Z,8.95
2023-03-20T11:33:39.832Z,7.50
2023-03-20T11:38:44.487Z,8.10
2023-03-20T11:48:40.905Z,5.72
2023-03-20T11:53:43.382Z,7.32
2023-03-20T11:58:56.425Z,7.70
2023-03-20T12:04:02.818Z,11.68
2023-03-20T12:09:06.364Z,7.47
2023-03-20T12:14:08.185Z,10.52
2023-03-20T12:19:17.624Z,7.65
2023-03-20T12:24:24.382Z,7.05
2023-03-20T12:29:27.310Z,8.50
2023-03-20T12:34:29.265Z,8.90
2023-03-20T12:39:33.784Z,11.80
2023-03-20T12:44:41.564Z,9.00
2023-03-20T12:49:49.528Z,10.95
2023-03-20T12:55:08.625Z,7.85
2023-03-20T20:47:48.476Z,16.63
2023-03-20T20:52:45.521Z,15.10
2023-03-20T20:57:42.421Z,11.93
2023-03-20T21:02:39.966Z,14.07
2023-03-20T21:07:38.174Z,14.07
2023-03-20T21:12:48.527Z,14.50
2023-03-20T21:18:01.009Z,15.88
2023-03-20T21:23:02.321Z,14.43
2023-03-20T21:27:59.593Z,13.02
2023-03-20T21:32:56.713Z,16.30
2023-03-20T21:43:11.572Z,18.95
2023-03-20T21:54:26.025Z,20.48
2023-03-20T22:04:54.901Z,16.40
2023-03-20T22:25:53.136Z,14.73
2023-03-20T22:46:44.376Z,16.65
2023-03-20T22:51:43.932Z,19.52
2023-03-20T22:56:49.106Z,23.13
2023-03-20T23:01:46.717Z,23.55
2023-03-20T23:06:43.583Z,29.17
2023-03-20T23:11:42.189Z,28.33
2023-03-20T23:16:39.082Z,20.88
2023-03-20T23:21:37.261Z,24.10
2023-03-20T23:26:34.067Z,20.95
2023-03-20T23:31:30.997Z,16.08
2023-03-20T23:36:36.498Z,12.95
2023-03-20T23:46:52.496Z,15.80
2023-03-20T23:51:49.460Z,10.75
2023-03-20T23:56:47.534Z,12.82
